createdAt,value
2023-02-17T00:01:33.177Z,-20.54
2023-02-17T00:06:37.034Z,-20.36
2023-02-17T00:11:40.812Z,-20.22
2023-02-17T00:16:46.391Z,-20.07
2023-02-17T00:21:52.763Z,-19.99
2023-02-17T00:26:56.814Z,-19.99
2023-02-17T00:32:01.037Z,-19.96
2023-02-17T00:37:05.065Z,-19.88
2023-02-17T00:42:09.812Z,-19.84
2023-02-17T00:47:13.539Z,-19.82
2023-02-17T00:52:17.385Z,-19.76
2023-02-17T00:57:21.264Z,-20.27
2023-02-17T01:02:25.033Z,-19.80
2023-02-17T01:07:30.008Z,-19.80
2023-02-17T01:12:33.807Z,-19.80
2023-02-17T01:17:37.902Z,-20.15
2023-02-17T01:22:42.072Z,-19.75
2023-02-17T01:27:47.808Z,-19.73
2023-02-17T01:32:51.799Z,-20.05
2023-02-17T01:37:55.632Z,-19.55
2023-02-17T01:43:00.267Z,-19.56
2023-02-17T01:48:10.299Z,-19.49
2023-02-17T01:53:18.899Z,-19.44
2023-02-17T01:58:25.505Z,-19.97
2023-02-17T02:03:33.588Z,-19.45
2023-02-17T02:08:52.779Z,-19.44
2023-02-17T02:13:59.092Z,-19.25
2023-02-17T02:19:24.434Z,-19.10
2023-02-17T02:24:46.282Z,-18.92
2023-02-17T02:29:52.965Z,-18.79
2023-02-17T02:35:38.053Z,-18.71
2023-02-17T02:40:49.713Z,-18.61
2023-02-17T02:45:53.523Z,-18.65
2023-02-17T02:51:03.285Z,-18.37
2023-02-17T02:56:14.762Z,-18.21
2023-02-17T03:01:34.100Z,-18.03
2023-02-17T03:06:47.438Z,-17.83
2023-02-17T03:11:53.490Z,-17.65
2023-02-17T03:16:57.426Z,-17.46
2023-02-17T03:22:27.139Z,-17.25
2023-02-17T03:27:31.376Z,-17.08
2023-02-17T03:32:35.339Z,-16.93
2023-02-17T03:37:39.507Z,-16.80
2023-02-17T03:42:43.299Z,-17.16
2023-02-17T03:47:47.284Z,-16.58
2023-02-17T03:52:51.314Z,-16.45
2023-02-17T03:57:55.036Z,-16.34
2023-02-17T04:02:58.954Z,-16.17
2023-02-17T04:08:02.833Z,-16.01
2023-02-17T04:13:07.010Z,-15.83
2023-02-17T04:18:11.018Z,-15.64
2023-02-17T04:23:15.240Z,-15.50
2023-02-17T04:28:19.969Z,-15.35
2023-02-17T04:33:23.834Z,-15.53
2023-02-17T04:38:29.610Z,-15.17
2023-02-17T04:43:34.008Z,-15.15
2023-02-17T04:48:37.985Z,-15.07
2023-02-17T04:53:41.853Z,-14.95
2023-02-17T04:58:45.640Z,-14.82
2023-02-17T05:03:49.617Z,-14.73
2023-02-17T05:08:54.662Z,-14.55
2023-02-17T05:13:58.927Z,-14.32
2023-02-17T05:19:03.011Z,-14.03
2023-02-17T05:24:07.218Z,-13.80
2023-02-17T05:29:11.270Z,-13.64
2023-02-17T05:34:15.174Z,-13.56
2023-02-17T05:39:19.250Z,-13.51
2023-02-17T05:44:23.205Z,-13.24
2023-02-17T05:49:27.912Z,-13.47
2023-02-17T05:54:31.738Z,-13.21
2023-02-17T05:59:35.453Z,-12.53
2023-02-17T06:04:39.560Z,-12.35
2023-02-17T06:09:43.432Z,-12.16
2023-02-17T06:14:47.977Z,-11.92
2023-02-17T06:19:52.113Z,-11.69
2023-02-17T06:24:55.929Z,-11.93
2023-02-17T06:29:59.916Z,-11.35
2023-02-17T06:35:03.838Z,-11.23
2023-02-17T06:40:09.120Z,-11.05
2023-02-17T06:45:12.906Z,-10.85
2023-02-17T06:50:16.986Z,-10.73
2023-02-17T06:55:21.150Z,-10.53
2023-02-17T07:00:25.111Z,-10.34
2023-02-17T07:05:29.549Z,-10.15
2023-02-17T07:10:34.152Z,-10.02
2023-02-17T07:15:38.223Z,-9.88
2023-02-17T07:20:42.418Z,-9.70
2023-02-17T07:25:46.355Z,-9.55
2023-02-17T07:30:50.438Z,-9.83
2023-02-17T07:35:54.592Z,-9.28
2023-02-17T07:40:58.513Z,-9.23
2023-02-17T07:46:02.781Z,-9.15
2023-02-17T07:51:12.332Z,-9.01
2023-02-17T07:56:17.745Z,-8.95
2023-02-17T08:01:25.266Z,-8.92
2023-02-17T08:06:29.286Z,-8.75
2023-02-17T08:11:51.687Z,-8.68
2023-02-17T08:16:55.802Z,-8.76
2023-02-17T08:22:00.939Z,-8.71
2023-02-17T08:27:04.942Z,-8.69
2023-02-17T08:32:10.430Z,-8.60
2023-02-17T08:37:14.319Z,-8.64
2023-02-17T08:42:18.914Z,-8.61
2023-02-17T08:47:22.999Z,-9.01
2023-02-17T08:52:26.844Z,-9.02
2023-02-17T08:57:32.093Z,-8.66
2023-02-17T09:02:36.587Z,-8.42
2023-02-17T09:07:41.209Z,-8.37
2023-02-17T09:12:45.134Z,-8.26
2023-02-17T09:17:49.260Z,-8.16
2023-02-17T09:22:53.514Z,-8.16
2023-02-17T09:27:59.846Z,-8.16
2023-02-17T09:33:06.268Z,-8.22
2023-02-17T09:38:11.211Z,-8.28
2023-02-17T09:43:27.629Z,-8.33
2023-02-17T09:48:35.016Z,-8.34
2023-02-17T09:53:50.449Z,-8.40
2023-02-17T09:58:56.804Z,-8.48
2023-02-17T10:04:08.364Z,-8.53
2023-02-17T10:09:23.782Z,-8.55
2023-02-17T10:14:41.549Z,-8.64
2023-02-17T10:20:00.997Z,-9.06
2023-02-17T10:25:17.667Z,-8.62
2023-02-17T10:30:48.649Z,-8.63
2023-02-17T10:36:15.423Z,-8.63
2023-02-17T10:41:28.840Z,-8.67
2023-02-17T10:46:33.824Z,-8.85
2023-02-17T10:51:37.673Z,-9.25
2023-02-17T10:56:55.215Z,-8.85
2023-02-17T11:02:16.591Z,-8.84
2023-02-17T11:07:27.663Z,-8.94
2023-02-17T11:12:40.839Z,-9.01
2023-02-17T11:17:46.379Z,-9.10
2023-02-17T11:23:01.527Z,-9.18
2023-02-17T11:28:12.458Z,-9.25
2023-02-17T11:33:23.522Z,-9.34
2023-02-17T11:38:49.936Z,-9.41
2023-02-17T11:44:00.012Z,-9.47
2023-02-17T11:49:28.614Z,-9.49
2023-02-17T11:54:54.036Z,-9.47
2023-02-17T12:00:06.094Z,-9.48
2023-02-17T12:05:27.094Z,-9.47
2023-02-17T12:10:52.765Z,-9.46
2023-02-17T12:16:07.181Z,-9.43
2023-02-17T12:21:27.198Z,-9.37
2023-02-17T12:27:12.777Z,-9.35
2023-02-17T12:32:39.756Z,-9.32
2023-02-17T12:37:56.228Z,-9.24
2023-02-17T12:43:28.023Z,-9.37
2023-02-17T12:48:42.010Z,-9.31
2023-02-17T12:54:06.301Z,-9.25
2023-02-17T12:59:28.477Z,-9.23
2023-02-17T13:04:35.216Z,-9.22
2023-02-17T13:09:43.381Z,-9.23
2023-02-17T13:15:03.711Z,-9.24
2023-02-17T13:20:11.371Z,-9.24
2023-02-17T13:25:37.125Z,-9.38
2023-02-17T13:30:46.424Z,-9.32
2023-02-17T13:35:50.852Z,-9.41
2023-02-17T13:41:02.239Z,-9.35
2023-02-17T13:46:07.153Z,-9.41
2023-02-17T13:51:27.306Z,-9.36
2023-02-17T13:56:33.348Z,-9.37
2023-02-17T14:01:41.734Z,-9.41
2023-02-17T14:06:45.609Z,-9.44
2023-02-17T14:11:50.722Z,-9.81
2023-02-17T14:17:04.024Z,-9.47
2023-02-17T14:22:08.156Z,-9.92
2023-02-17T14:27:15.579Z,-9.48
2023-02-17T14:32:38.510Z,-9.47
2023-02-17T14:37:45.882Z,-9.80
2023-02-17T14:42:52.050Z,-9.51
2023-02-17T14:47:57.489Z,-9.52
2023-02-17T14:53:01.727Z,-9.55
2023-02-17T14:58:05.950Z,-9.82
2023-02-17T15:03:10.844Z,-9.48
2023-02-17T15:08:18.465Z,-9.51
2023-02-17T15:13:23.523Z,-9.53
2023-02-17T15:18:28.227Z,-9.55
2023-02-17T15:23:35.411Z,-9.58
2023-02-17T15:28:39.703Z,-9.60
2023-02-17T15:33:45.462Z,-9.63
2023-02-17T15:38:51.968Z,-9.68
2023-02-17T15:43:58.499Z,-9.74
2023-02-17T15:49:03.324Z,-9.78
2023-02-17T15:54:07.407Z,-9.85
2023-02-17T15:59:22.247Z,-9.90
2023-02-17T16:04:26.018Z,-9.94
2023-02-17T16:09:30.118Z,-9.98
2023-02-17T16:14:40.621Z,-10.11
2023-02-17T16:19:44.668Z,-10.28
2023-02-17T16:24:48.594Z,-10.28
2023-02-17T16:29:53.345Z,-10.39
2023-02-17T16:34:57.096Z,-10.46
2023-02-17T16:40:01.483Z,-10.62
2023-02-17T16:45:06.370Z,-10.73
2023-02-17T16:50:38.162Z,-11.21
2023-02-17T16:55:43.380Z,-10.97
2023-02-17T17:00:49.323Z,-11.07
2023-02-17T17:05:54.392Z,-11.22
2023-02-17T17:10:58.919Z,-11.44
2023-02-17T17:16:04.078Z,-11.39
2023-02-17T17:21:07.939Z,-11.52
2023-02-17T17:26:40.014Z,-11.58
2023-02-17T17:31:44.090Z,-11.68
2023-02-17T17:36:49.137Z,-11.84
2023-02-17T17:41:53.135Z,-12.05
2023-02-17T17:46:56.898Z,-12.27
2023-02-17T17:52:00.715Z,-12.51
2023-02-17T17:57:04.592Z,-12.70
2023-02-17T18:02:09.585Z,-12.87
2023-02-17T18:07:13.573Z,-12.97
2023-02-17T18:12:20.595Z,-13.14
2023-02-17T18:17:25.145Z,-13.25
2023-02-17T18:22:29.424Z,-13.38
2023-02-17T18:27:45.932Z,-13.42
2023-02-17T18:32:50.392Z,-13.53
2023-02-17T18:37:54.390Z,-13.92
2023-02-17T18:42:58.387Z,-13.72
2023-02-17T18:48:02.934Z,-13.87
2023-02-17T18:53:06.703Z,-14.02
2023-02-17T18:58:12.331Z,-14.33
2023-02-17T19:03:16.515Z,-15.22
2023-02-17T19:08:20.978Z,-14.49
2023-02-17T19:13:24.807Z,-14.60
2023-02-17T19:18:28.861Z,-14.86
2023-02-17T19:23:32.910Z,-15.40
2023-02-17T19:28:38.513Z,-15.15
2023-02-17T19:33:44.846Z,-15.53
2023-02-17T19:38:50.491Z,-15.61
2023-02-17T19:43:54.184Z,-15.75
2023-02-17T19:48:59.075Z,-15.75
2023-02-17T19:54:03.502Z,-15.89
2023-02-17T19:59:07.300Z,-16.10
2023-02-17T20:04:11.743Z,-16.28
2023-02-17T20:09:22.244Z,-16.38
2023-02-17T20:14:26.087Z,-16.51
2023-02-17T20:19:30.276Z,-16.69
2023-02-17T20:24:35.177Z,-16.83
2023-02-17T20:29:39.337Z,-17.08
2023-02-17T20:34:44.078Z,-17.07
2023-02-17T20:39:47.824Z,-17.18
2023-02-17T20:44:51.731Z,-17.27
2023-02-17T20:49:55.539Z,-17.42
2023-02-17T20:54:59.546Z,-17.51
2023-02-17T21:00:05.820Z,-17.58
2023-02-17T21:05:09.856Z,-17.87
2023-02-17T21:10:23.355Z,-17.89
2023-02-17T21:15:28.399Z,-18.02
2023-02-17T21:20:32.899Z,-18.09
2023-02-17T21:25:39.006Z,-18.24
2023-02-17T21:30:47.607Z,-18.29
2023-02-17T21:35:56.936Z,-18.30
2023-02-17T21:41:06.634Z,-18.34
2023-02-17T21:46:12.209Z,-18.53
2023-02-17T21:51:16.257Z,-18.66
2023-02-17T21:56:22.087Z,-18.74
2023-02-17T22:01:27.897Z,-18.88
2023-02-17T22:06:34.919Z,-19.01
2023-02-17T22:12:01.720Z,-19.04
2023-02-17T22:17:05.669Z,-19.24
2023-02-17T22:22:09.965Z,-19.54
2023-02-17T22:27:13.894Z,-19.39
2023-02-17T22:32:17.775Z,-19.50
2023-02-17T22:37:21.762Z,-19.53
2023-02-17T22:42:25.870Z,-19.70
2023-02-17T22:47:29.763Z,-19.72
2023-02-17T22:52:35.100Z,-19.82
2023-02-17T22:57:38.922Z,-19.87
2023-02-17T23:02:42.746Z,-20.09
2023-02-17T23:07:46.526Z,-20.35
2023-02-17T23:12:50.452Z,-20.42
2023-02-17T23:17:57.834Z,-20.43
2023-02-17T23:23:02.084Z,-20.69
2023-02-17T23:28:06.851Z,-20.77
2023-02-17T23:33:11.350Z,-20.78
2023-02-17T23:38:18.978Z,-21.08
2023-02-17T23:43:23.177Z,-21.16
2023-02-17T23:48:26.879Z,-21.24
2023-02-17T23:53:32.410Z,-21.54
2023-02-17T23:58:36.624Z,-21.84
